Time;durP1;ratioP1;P1;durP2;ratioP2;P2;SDS_P1;SDS_P2;PMS_P1;PMS_P2;Temp;Humidity;BMP_temperature;BMP_pressure;BME280_temperature;BME280_humidity;BME280_pressure;Samples;Min_cycle;Max_cycle;Signal;HPM_P1;HPM_P2
2022/08/04 00:00:28;;;;;;;2.20;1.73;;;27.90;52.60;;;-142.21;55.23;112049.66;5112057;28;20189;-70
2022/08/04 00:03:14;;;;;;;1.83;1.70;;;27.90;52.30;;;-142.21;55.05;112049.66;5112350;28;20201;-70
2022/08/04 00:05:58;;;;;;;2.27;2.03;;;27.90;52.60;;;-142.21;55.48;112049.66;5111380;28;20215;-69
2022/08/04 00:08:41;;;;;;;2.37;2.17;;;27.80;52.70;;;-142.21;55.34;112049.66;5112729;28;20615;-71
2022/08/04 00:11:15;;;;;;;2.37;2.17;;;27.80;52.70;;;-142.21;55.62;112049.66;5112225;28;20200;-71
2022/08/04 00:13:54;;;;;;;2.00;1.80;;;27.70;52.60;;;-142.21;55.69;112049.66;5111910;28;20280;-71
2022/08/04 00:16:24;;;;;;;2.97;2.23;;;27.80;52.70;;;-142.21;56.27;112049.66;5110920;28;20190;-70
2022/08/04 00:19:01;;;;;;;2.93;2.27;;;27.80;52.90;;;-142.21;55.72;112049.66;5111799;28;20206;-70
2022/08/04 00:21:34;;;;;;;2.40;2.13;;;27.70;52.80;;;-142.21;56.24;112049.66;5111877;28;20186;-70
2022/08/04 00:24:02;;;;;;;2.73;2.30;;;27.70;52.80;;;-142.21;55.54;112049.66;5111938;28;20233;-70
2022/08/04 00:26:32;;;;;;;2.73;2.40;;;27.70;52.60;;;-142.21;56.17;112049.66;5110114;28;20231;-69
2022/08/04 00:29:01;;;;;;;3.50;2.20;;;27.60;52.80;;;-142.21;55.87;112049.66;5100102;28;20238;-70
2022/08/04 00:31:28;;;;;;;2.20;2.00;;;27.60;52.70;;;-142.21;55.50;112049.66;5111567;28;20246;-69
2022/08/04 00:33:56;;;;;;;2.33;1.90;;;27.50;53.10;;;-142.21;56.96;112049.66;5112177;28;20225;-70
2022/08/04 00:36:24;;;;;;;2.20;2.00;;;27.50;52.90;;;-142.21;56.93;112049.66;5112455;28;20284;-70
2022/08/04 00:38:53;;;;;;;3.77;2.20;;;27.50;53.10;;;-142.21;57.79;112049.66;5106584;28;20283;-70
2022/08/04 00:41:30;;;;;;;3.83;2.40;;;27.50;53.30;;;-142.21;57.75;112049.66;5112410;28;20622;-70
2022/08/04 00:44:22;;;;;;;2.87;2.17;;;27.40;53.30;;;-142.21;58.57;112049.66;5096985;28;20249;-70
2022/08/04 00:47:28;;;;;;;3.37;2.90;;;27.40;53.60;;;-142.21;58.47;112049.66;5111562;28;20195;-70
2022/08/04 00:50:09;;;;;;;2.50;2.30;;;27.30;53.80;;;-142.21;58.38;112049.66;5104743;28;20207;-70
2022/08/04 00:53:04;;;;;;;2.67;2.47;;;27.30;53.70;;;-142.21;59.07;112049.66;5111287;28;20278;-70
2022/08/04 00:56:21;;;;;;;3.33;2.30;;;27.30;53.90;;;-142.21;58.06;112049.66;5111411;28;20299;-70
2022/08/04 00:59:08;;;;;;;3.70;2.60;;;27.30;53.90;;;-142.21;59.32;112049.66;5103692;28;20275;-70
2022/08/04 01:02:00;;;;;;;3.43;2.80;;;27.30;54.00;;;-142.21;59.86;112049.66;5105238;28;20289;-70
2022/08/04 01:04:49;;;;;;;2.47;2.27;;;27.20;54.30;;;-142.21;60.84;112049.66;5097443;28;20194;-70
2022/08/04 01:08:02;;;;;;;2.57;2.37;;;27.10;54.40;;;-142.21;60.23;112049.66;5111699;28;20284;-70
2022/08/04 01:10:54;;;;;;;2.33;2.13;;;27.10;54.40;;;-142.21;60.38;112049.66;5104693;28;20679;-70
2022/08/04 01:14:15;;;;;;;4.53;2.70;;;27.10;54.30;;;-142.21;60.03;112049.66;5112225;28;20216;-70
2022/08/04 01:16:51;;;;;;;2.97;2.60;;;27.10;55.10;;;-142.21;60.50;112049.66;5040950;28;20201;-70
2022/08/04 01:20:02;;;;;;;2.50;2.30;;;27.10;54.40;;;-142.21;61.01;112049.66;5109588;28;20184;-69
2022/08/04 01:23:21;;;;;;;2.30;2.10;;;27.10;54.60;;;-142.21;60.81;112049.66;5105290;28;20204;-70
2022/08/04 01:26:50;;;;;;;2.30;2.10;;;27.10;54.90;;;-142.21;61.76;112049.66;5114938;28;20215;-70
2022/08/04 01:29:22;;;;;;;2.57;2.20;;;27.00;55.00;;;-142.21;61.73;112049.66;5113771;28;20203;-69
2022/08/04 01:32:02;;;;;;;2.37;2.17;;;27.00;54.70;;;-142.21;62.11;112049.66;5114811;28;20199;-70
2022/08/04 01:34:35;;;;;;;2.30;2.10;;;27.00;55.00;;;-142.21;62.29;112049.66;5115107;28;20316;-70
2022/08/04 01:37:16;;;;;;;2.87;2.27;;;26.90;54.80;;;-142.21;62.43;112049.66;5115633;28;20732;-69
2022/08/04 01:39:58;;;;;;;2.73;2.03;;;26.90;55.20;;;-142.21;63.40;112049.66;5106473;28;20271;-70
2022/08/04 01:42:28;;;;;;;2.83;2.53;;;26.90;55.20;;;-142.21;63.25;112049.66;5100993;28;20194;-69
2022/08/04 01:45:02;;;;;;;3.37;2.20;;;26.90;55.30;;;-142.21;63.25;112049.66;5115054;28;20195;-70
2022/08/04 01:47:35;;;;;;;2.47;2.27;;;26.80;55.30;;;-142.21;63.51;112049.66;5114679;28;20291;-70
2022/08/04 01:50:08;;;;;;;2.50;2.30;;;26.80;55.50;;;-142.21;61.96;112049.66;5114930;28;20226;-70
2022/08/04 01:52:37;;;;;;;3.17;1.97;;;26.80;55.10;;;-142.21;61.26;112049.66;5114802;28;20187;-69
2022/08/04 01:55:09;;;;;;;2.40;2.20;;;26.80;54.70;;;-142.21;60.39;112049.66;5115170;28;20307;-69
2022/08/04 01:57:44;;;;;;;2.90;2.33;;;26.80;54.50;;;-142.21;58.75;112049.66;5110922;28;20228;-70
2022/08/04 02:00:16;;;;;;;2.57;2.20;;;26.90;54.20;;;-142.21;59.10;112049.66;5105475;28;20205;-70
2022/08/04 02:02:45;;;;;;;2.40;2.20;;;26.90;54.20;;;-142.21;58.88;112049.66;5117532;28;20223;-70
2022/08/04 02:05:16;;;;;;;3.47;2.13;;;26.90;54.00;;;-142.21;58.32;112049.66;5118947;28;20260;-70
2022/08/04 02:08:06;;;;;;;2.20;2.00;;;26.90;53.90;;;-142.21;57.89;112049.66;5110163;28;20272;-70
2022/08/04 02:11:01;;;;;;;2.80;2.00;;;26.90;53.80;;;-142.21;57.63;112049.66;5114572;28;20239;-70
2022/08/04 02:13:38;;;;;;;3.03;2.33;;;26.90;53.80;;;-142.21;57.59;112049.66;5111736;28;20331;-70
2022/08/04 02:16:21;;;;;;;3.10;2.10;;;26.90;53.70;;;-142.21;57.11;112049.66;5112865;28;20306;-70
2022/08/04 02:19:01;;;;;;;2.47;2.27;;;26.90;53.60;;;-142.21;57.68;112049.66;5109560;28;20188;-70
2022/08/04 02:21:32;;;;;;;2.50;2.30;;;26.90;53.60;;;-142.21;58.22;112049.66;5099143;28;20219;-70
2022/08/04 02:24:07;;;;;;;2.90;2.60;;;26.80;53.70;;;-142.21;60.03;112049.66;5114121;28;20234;-70
2022/08/04 02:26:35;;;;;;;3.23;2.00;;;26.80;54.20;;;-142.21;60.07;112049.66;5114785;28;20620;-70
2022/08/04 02:29:13;;;;;;;2.13;1.93;;;26.80;54.20;;;-142.21;60.27;112049.66;5113735;28;20235;-70
2022/08/04 02:31:52;;;;;;;2.37;2.17;;;26.70;55.00;;;-142.21;60.74;112049.66;5113582;28;20195;-70
2022/08/04 02:34:30;;;;;;;2.60;2.40;;;26.70;54.70;;;-142.21;61.18;112049.66;5113853;28;20227;-70
2022/08/04 02:37:00;;;;;;;2.13;1.93;;;26.60;54.70;;;-142.21;60.72;112049.66;5113426;28;20192;-70
2022/08/04 02:39:34;;;;;;;2.07;1.90;;;26.60;54.50;;;-142.21;61.39;112049.66;5111088;28;20563;-70
2022/08/04 02:42:04;;;;;;;3.93;2.50;;;26.50;54.70;;;-142.21;61.06;112049.66;5103093;28;20279;-70
2022/08/04 02:44:32;;;;;;;2.40;2.20;;;26.50;54.60;;;-142.21;60.97;112049.66;5108847;28;20656;-70
2022/08/04 02:47:01;;;;;;;2.40;2.20;;;26.40;54.70;;;-142.21;61.65;112049.66;5113399;28;20756;-70
2022/08/04 02:49:35;;;;;;;2.50;2.30;;;26.40;54.90;;;-142.21;62.12;112049.66;5111721;28;20311;-70
2022/08/04 02:52:03;;;;;;;2.63;2.43;;;26.40;55.10;;;-142.21;63.18;112049.66;5111703;28;20220;-70
2022/08/04 02:54:38;;;;;;;2.53;2.33;;;26.30;55.10;;;-142.21;62.37;112049.66;5113633;28;20283;-70
2022/08/04 02:57:12;;;;;;;2.93;2.40;;;26.30;55.20;;;-142.21;63.15;112049.66;5104207;28;20279;-70
2022/08/04 03:00:04;;;;;;;2.47;2.27;;;26.30;55.30;;;-142.21;62.90;112049.66;5096882;28;20735;-69
2022/08/04 03:03:02;;;;;;;2.93;2.63;;;26.20;55.30;;;-142.21;63.20;112049.66;5107395;28;20291;-69
2022/08/04 03:05:45;;;;;;;2.50;2.30;;;26.20;55.50;;;-142.21;62.77;112049.66;5113591;28;20656;-69
2022/08/04 03:08:53;;;;;;;4.83;2.50;;;26.20;55.40;;;-142.21;63.13;112049.66;5113367;28;20191;-70
2022/08/04 03:11:56;;;;;;;2.50;2.30;;;26.10;55.60;;;-142.21;63.81;112049.66;5102488;28;20195;-70
2022/08/04 03:14:59;;;;;;;3.40;2.20;;;26.10;55.70;;;-142.21;64.11;112049.66;5113380;28;20190;-70
2022/08/04 03:18:20;;;;;;;2.50;2.30;;;26.10;56.00;;;-142.21;65.05;112049.66;5113490;28;20196;-70
2022/08/04 03:21:22;;;;;;;3.50;2.40;;;26.00;56.10;;;-142.21;64.83;112049.66;5074152;28;20284;-70
2022/08/04 03:24:25;;;;;;;4.70;2.57;;;26.00;56.10;;;-142.21;64.75;112049.66;5105793;28;20235;-70
2022/08/04 03:27:36;;;;;;;2.40;2.20;;;26.00;56.70;;;-142.21;65.37;112049.66;5112956;28;20188;-70
2022/08/04 03:30:19;;;;;;;2.33;2.13;;;26.00;56.20;;;-142.21;66.00;112049.66;5109510;28;20196;-69
2022/08/04 03:33:38;;;;;;;2.57;2.33;;;25.90;56.40;;;-142.21;66.46;112049.66;5112428;28;20184;-70
2022/08/04 03:37:08;;;;;;;3.03;2.03;;;25.90;56.70;;;-142.21;66.36;112049.66;5109569;28;20223;-69
2022/08/04 03:40:13;;;;;;;2.93;2.30;;;25.90;56.90;;;-142.21;66.48;112049.66;5040580;28;20706;-70
2022/08/04 03:43:23;;;;;;;2.10;1.90;;;25.80;56.80;;;-142.21;65.87;112049.66;5032544;28;20198;-70
2022/08/04 03:46:46;;;;;;;3.47;2.20;;;25.80;57.10;;;-142.21;65.82;112049.66;5111518;28;20263;-70
2022/08/04 03:50:18;;;;;;;2.60;2.20;;;25.70;56.60;;;-142.21;66.51;112049.66;5112657;28;20290;-70
2022/08/04 03:53:20;;;;;;;3.10;2.00;;;25.70;56.60;;;-142.21;66.47;112049.66;5040306;28;20244;-69
2022/08/04 03:56:25;;;;;;;2.40;2.20;;;25.60;56.70;;;-142.21;66.46;112049.66;5049007;28;20252;-69
2022/08/04 03:59:31;;;;;;;3.37;2.00;;;25.60;56.70;;;-142.21;65.39;112049.66;5107265;28;20223;-69
2022/08/04 04:02:44;;;;;;;2.60;2.40;;;25.60;56.40;;;-142.21;65.06;112049.66;5111336;28;20232;-70
2022/08/04 04:06:01;;;;;;;2.37;2.17;;;25.60;56.50;;;-142.21;64.39;112049.66;5088033;28;20274;-70
2022/08/04 04:09:07;;;;;;;3.90;2.30;;;25.50;56.40;;;-142.21;64.53;112049.66;5105989;28;20234;-70
2022/08/04 04:12:18;;;;;;;3.97;2.27;;;25.50;56.10;;;-142.21;65.30;112049.66;5093485;28;20235;-70
2022/08/04 04:15:03;;;;;;;3.67;2.40;;;25.40;56.30;;;-142.21;66.87;112049.66;5111034;28;20294;-68
2022/08/04 04:18:20;;;;;;;3.37;2.50;;;25.40;56.70;;;-142.21;66.05;112049.66;5112089;28;20196;-69
2022/08/04 04:21:08;;;;;;;3.57;2.77;;;25.40;56.90;;;-142.21;66.54;112049.66;5104547;28;20204;-70
2022/08/04 04:24:13;;;;;;;2.87;2.17;;;25.40;56.80;;;-142.21;67.57;112049.66;5111311;28;20277;-68
2022/08/04 04:27:02;;;;;;;3.93;2.27;;;25.30;57.10;;;-142.21;68.66;112049.66;5091705;28;20216;-70
2022/08/04 04:30:07;;;;;;;3.33;2.33;;;25.40;57.60;;;-142.21;69.45;112049.66;5103256;28;20274;-70
2022/08/04 04:33:07;;;;;;;2.40;2.17;;;25.30;57.60;;;-142.21;70.82;112049.66;5111430;28;20192;-70
2022/08/04 04:35:50;;;;;;;2.87;2.23;;;25.30;58.20;;;-142.21;69.49;112049.66;5112124;28;20208;-69
2022/08/04 04:39:01;;;;;;;2.53;2.33;;;25.30;57.60;;;-142.21;71.52;112049.66;5111536;28;20267;-70
2022/08/04 04:41:48;;;;;;;3.23;2.30;;;25.30;58.50;;;-142.21;71.31;112049.66;5100495;28;20204;-70
2022/08/04 04:44:55;;;;;;;2.50;2.20;;;25.30;58.30;;;-142.21;72.02;112049.66;5112213;28;20234;-70
2022/08/04 04:47:41;;;;;;;2.87;2.57;;;25.30;58.60;;;-142.21;72.34;112049.66;5111821;28;20223;-70
2022/08/04 04:50:15;;;;;;;3.20;2.57;;;25.30;58.40;;;-142.21;72.38;112049.66;5112318;28;20274;-70
2022/08/04 04:52:53;;;;;;;5.20;2.63;;;25.30;58.50;;;-142.21;72.73;112049.66;5111141;28;20744;-70
2022/08/04 04:55:28;;;;;;;3.17;2.20;;;25.30;58.70;;;-142.21;72.04;112049.66;5097846;28;20298;-70
2022/08/04 04:58:03;;;;;;;4.07;2.60;;;25.40;58.60;;;-142.21;72.02;112049.66;5112223;28;20608;-70
2022/08/04 05:00:53;;;;;;;3.00;2.70;;;25.40;58.40;;;-142.21;71.75;112049.66;5115399;28;20270;-69
2022/08/04 05:03:48;;;;;;;3.30;2.43;;;25.40;58.40;;;-142.21;72.13;112049.66;5101343;28;20312;-69
2022/08/04 05:06:37;;;;;;;3.20;2.27;;;25.40;58.50;;;-142.21;71.64;112049.66;5115992;28;20256;-69
2022/08/04 05:09:31;;;;;;;2.97;2.13;;;25.50;58.30;;;-142.21;71.67;112049.66;5113084;28;20267;-70
2022/08/04 05:12:31;;;;;;;2.43;2.10;;;25.50;58.30;;;-142.21;70.25;112049.66;5115182;28;20704;-69
2022/08/04 05:15:01;;;;;;;2.87;2.20;;;25.60;58.10;;;-142.21;70.01;112049.66;5114820;28;20224;-70
2022/08/04 05:17:35;;;;;;;3.17;2.30;;;25.70;57.80;;;-142.21;70.02;112049.66;5113859;28;20378;-70
2022/08/04 05:20:10;;;;;;;2.93;2.37;;;25.80;57.80;;;-142.21;69.04;112049.66;5115378;28;20199;-69
2022/08/04 05:22:45;;;;;;;2.63;2.43;;;25.80;57.80;;;-142.21;68.52;112049.66;5115269;28;20222;-71
2022/08/04 05:25:21;;;;;;;3.77;2.70;;;25.90;57.40;;;-142.21;66.83;112049.66;5075052;28;20212;-69
2022/08/04 05:28:01;;;;;;;5.23;2.77;;;26.00;56.90;;;-142.21;66.21;112049.66;5082271;28;20284;-68
2022/08/04 05:30:35;;;;;;;3.17;2.60;;;26.10;56.80;;;-142.21;65.90;112049.66;5087413;28;20197;-70
2022/08/04 05:33:07;;;;;;;3.37;2.97;;;26.10;56.60;;;-142.21;64.39;112049.66;5076537;28;20193;-70
2022/08/04 05:35:41;;;;;;;2.70;2.50;;;26.20;56.20;;;-142.21;63.30;112049.66;5072301;28;20296;-70
2022/08/04 05:38:15;;;;;;;3.43;2.87;;;26.30;55.90;;;-142.21;62.83;112049.66;5069693;28;20193;-69
2022/08/04 05:40:43;;;;;;;3.30;2.50;;;26.40;56.20;;;-142.21;61.27;112049.66;5074519;28;20204;-70
2022/08/04 05:43:15;;;;;;;3.47;2.33;;;26.40;55.40;;;-142.21;61.25;112049.66;5074051;28;20288;-70
2022/08/04 05:45:47;;;;;;;4.37;2.60;;;26.50;55.40;;;-142.21;62.32;112049.66;5061693;28;20194;-69
2022/08/04 05:48:15;;;;;;;4.07;2.40;;;26.50;55.70;;;-142.21;60.92;112049.66;5073132;28;20197;-70
2022/08/04 05:50:45;;;;;;;3.63;2.53;;;26.60;55.40;;;-142.21;62.13;112049.66;5066900;28;20256;-71
2022/08/04 05:53:15;;;;;;;4.80;2.73;;;26.60;55.70;;;-142.21;63.32;112049.66;5062030;28;20233;-69
2022/08/04 05:55:43;;;;;;;5.60;2.40;;;26.70;56.10;;;-142.21;63.78;112049.66;5074370;28;20246;-69
2022/08/04 05:58:15;;;;;;;4.67;2.50;;;26.70;56.20;;;-142.21;62.64;112049.66;5074171;28;20284;-70
2022/08/04 06:00:46;;;;;;;3.77;2.47;;;26.70;56.10;;;-142.21;61.58;112049.66;5073776;28;20201;-69
2022/08/04 06:03:15;;;;;;;3.30;2.67;;;26.80;55.90;;;-142.21;61.95;112049.66;5063722;28;20262;-70
2022/08/04 06:05:44;;;;;;;3.00;2.50;;;26.90;55.80;;;-142.21;61.51;112049.66;5074207;28;20233;-70
2022/08/04 06:08:11;;;;;;;2.93;2.47;;;27.00;55.60;;;-142.21;59.76;112049.66;5073745;28;20237;-70
2022/08/04 06:10:40;;;;;;;2.20;2.00;;;27.00;55.20;;;-142.21;59.44;112049.66;5072487;28;20236;-69
2022/08/04 06:13:14;;;;;;;2.37;2.17;;;27.10;55.10;;;-142.21;57.86;112049.66;5073329;28;20732;-69
2022/08/04 06:15:47;;;;;;;3.50;2.43;;;27.20;54.50;;;-142.21;57.74;112049.66;5074208;28;20214;-70
2022/08/04 06:18:16;;;;;;;4.43;2.60;;;27.30;54.60;;;-142.21;58.49;112049.66;5054157;28;20190;-69
2022/08/04 06:20:47;;;;;;;4.10;2.33;;;27.40;54.60;;;-142.21;57.60;112049.66;5057079;28;20205;-68
2022/08/04 06:23:19;;;;;;;2.60;2.37;;;27.40;54.30;;;-142.21;57.42;112049.66;5080835;28;20229;-68
2022/08/04 06:25:51;;;;;;;4.93;2.93;;;27.50;54.40;;;-142.21;56.81;112049.66;5114096;28;20283;-68
2022/08/04 06:28:21;;;;;;;5.27;2.73;;;27.60;54.10;;;-142.21;56.30;112049.66;5106386;28;20585;-68
2022/08/04 06:30:51;;;;;;;2.67;2.47;;;27.60;54.00;;;-142.21;56.13;112049.66;5095546;28;20599;-68
2022/08/04 06:33:32;;;;;;;4.53;2.93;;;27.70;53.90;;;-142.21;53.46;112049.66;5096999;28;20193;-68
2022/08/04 06:36:02;;;;;;;3.43;3.13;;;27.80;53.20;;;-142.21;53.71;112049.66;5101700;28;20224;-68
2022/08/04 06:38:32;;;;;;;2.70;2.50;;;27.90;53.10;;;-142.21;50.74;112049.66;5095712;28;20197;-68
2022/08/04 06:41:08;;;;;;;3.63;2.53;;;28.10;53.00;;;-142.21;49.33;112049.66;5099241;28;20224;-69
2022/08/04 06:43:39;;;;;;;3.17;2.87;;;28.20;51.80;;;-142.21;48.12;112049.66;5105407;28;20297;-69
2022/08/04 06:46:09;;;;;;;2.63;2.43;;;28.40;51.20;;;-142.21;47.37;112049.66;5113849;28;20269;-69
2022/08/04 06:48:38;;;;;;;3.40;3.00;;;28.40;50.80;;;-142.21;46.59;112049.66;5114487;28;20571;-69
2022/08/04 06:51:07;;;;;;;4.83;3.20;;;28.60;50.60;;;-142.21;46.60;112049.66;5113454;28;20253;-69
2022/08/04 06:53:34;;;;;;;3.50;3.20;;;28.70;50.40;;;-142.21;46.52;112049.66;5114374;28;20201;-68
2022/08/04 06:56:02;;;;;;;3.97;3.20;;;28.80;50.10;;;-142.21;45.58;112049.66;5113504;28;20319;-68
2022/08/04 06:58:33;;;;;;;4.73;3.40;;;28.90;49.80;;;-142.21;45.83;112049.66;5114264;28;20266;-69
2022/08/04 07:01:03;;;;;;;4.20;3.50;;;29.00;49.60;;;-142.21;45.63;112049.66;5113416;28;20226;-69
2022/08/04 07:03:32;;;;;;;4.80;3.23;;;29.00;49.50;;;-142.21;44.56;112049.66;5113729;28;20293;-69
2022/08/04 07:06:01;;;;;;;5.37;3.70;;;29.20;49.20;;;-142.21;44.36;112049.66;5113027;28;20203;-69
2022/08/04 07:08:29;;;;;;;4.10;3.80;;;29.20;48.80;;;-142.21;44.25;112049.66;5113726;28;20267;-68
2022/08/04 07:11:00;;;;;;;4.00;3.60;;;29.30;48.70;;;-142.21;44.15;112049.66;5113178;28;20203;-69
2022/08/04 07:13:30;;;;;;;4.10;3.70;;;29.30;48.60;;;-142.21;44.11;112049.66;5113642;28;20194;-68
2022/08/04 07:16:01;;;;;;;3.93;3.53;;;29.40;49.20;;;-142.21;44.49;112049.66;5113027;28;20268;-69
2022/08/04 07:18:31;;;;;;;4.13;3.47;;;29.50;48.70;;;-142.21;44.59;112049.66;5113644;28;20862;-69
2022/08/04 07:20:58;;;;;;;4.23;3.83;;;29.60;48.80;;;-142.21;43.53;112049.66;5112823;28;20667;-69
2022/08/04 07:23:27;;;;;;;3.90;3.50;;;29.70;48.10;;;-142.21;43.35;112049.66;5113226;28;20764;-70
2022/08/04 07:25:59;;;;;;;4.17;3.73;;;29.80;48.00;;;-142.21;43.07;112049.66;5101049;28;20242;-68
2022/08/04 07:28:29;;;;;;;4.07;3.10;;;29.90;47.70;;;-142.21;42.66;112049.66;5092948;28;20645;-69
2022/08/04 07:30:58;;;;;;;7.33;3.57;;;30.00;47.60;;;-142.21;42.74;112049.66;5092012;28;20247;-69
2022/08/04 07:33:28;;;;;;;3.60;3.30;;;30.00;47.50;;;-142.21;42.14;112049.66;5093079;28;20245;-68
2022/08/04 07:35:57;;;;;;;4.50;3.50;;;30.10;47.20;;;-142.21;41.82;112049.66;5092656;28;20246;-69
2022/08/04 07:38:24;;;;;;;5.10;3.63;;;30.20;47.20;;;-142.21;41.41;112049.66;5093260;28;20294;-69
2022/08/04 07:40:52;;;;;;;4.47;3.10;;;30.20;46.80;;;-142.21;41.26;112049.66;5112872;28;20248;-68
2022/08/04 07:43:20;;;;;;;3.83;3.23;;;30.30;46.90;;;-142.21;40.94;112049.66;5113330;28;20299;-68
2022/08/04 07:45:47;;;;;;;5.53;3.80;;;30.40;46.70;;;-142.21;40.99;112049.66;5113004;28;20292;-68
2022/08/04 07:48:19;;;;;;;5.60;4.03;;;30.50;46.40;;;-142.21;41.35;112049.66;5112436;28;20203;-67
2022/08/04 07:50:48;;;;;;;3.70;3.40;;;30.60;46.60;;;-142.21;40.30;112049.66;5112874;28;20188;-68
2022/08/04 07:53:16;;;;;;;3.40;3.10;;;30.70;46.10;;;-142.21;39.93;112049.66;5112102;28;20246;-68
2022/08/04 07:55:46;;;;;;;5.33;3.20;;;30.80;45.90;;;-142.21;39.69;112049.66;5060915;28;20204;-68
2022/08/04 07:58:15;;;;;;;9.47;3.90;;;30.90;45.70;;;-142.21;39.38;112049.66;5112554;28;20544;-68
2022/08/04 08:00:46;;;;;;;3.37;2.87;;;31.00;45.40;;;-142.21;39.61;112049.66;5112749;28;20199;-68
2022/08/04 08:03:15;;;;;;;9.20;3.50;;;31.00;45.40;;;-142.21;39.08;112049.66;5111936;28;20192;-69
2022/08/04 08:05:43;;;;;;;3.83;3.53;;;31.00;45.10;;;-142.21;39.30;112049.66;5112975;28;20309;-69
2022/08/04 08:08:12;;;;;;;4.33;3.00;;;31.10;45.10;;;-142.21;38.78;112049.66;5112199;28;20260;-69
2022/08/04 08:10:45;;;;;;;3.43;3.13;;;31.20;44.80;;;-142.21;38.84;112049.66;5112826;28;20627;-68
2022/08/04 08:13:13;;;;;;;4.53;3.57;;;31.20;45.40;;;-142.21;38.57;112049.66;5112385;28;20516;-69
2022/08/04 08:15:41;;;;;;;4.13;2.93;;;31.30;44.50;;;-142.21;38.55;112049.66;5112566;28;20272;-69
2022/08/04 08:18:08;;;;;;;5.80;3.20;;;31.40;44.50;;;-142.21;38.15;112049.66;5111935;28;20310;-70
2022/08/04 08:20:36;;;;;;;4.73;2.97;;;31.50;44.30;;;-142.21;38.00;112049.66;5112784;28;20203;-69
2022/08/04 08:23:03;;;;;;;3.43;3.13;;;31.60;44.10;;;-142.21;38.08;112049.66;5111794;28;20219;-69
2022/08/04 08:25:33;;;;;;;3.60;3.30;;;31.70;43.90;;;-142.21;38.13;112049.66;5112764;28;20187;-68
2022/08/04 08:28:04;;;;;;;5.03;3.10;;;31.70;44.20;;;-142.21;37.74;112049.66;5111874;28;20695;-70
2022/08/04 08:30:33;;;;;;;3.90;2.93;;;31.90;43.80;;;-142.21;36.67;112049.66;5112446;28;20554;-70
2022/08/04 08:33:05;;;;;;;3.53;2.50;;;31.90;43.50;;;-142.21;36.27;112049.66;5111060;28;20235;-69
2022/08/04 08:35:46;;;;;;;3.97;2.70;;;32.00;42.80;;;-142.21;35.35;112049.66;5112802;28;20199;-68
2022/08/04 08:38:17;;;;;;;3.10;2.80;;;32.10;41.50;;;-142.21;34.67;112049.66;5111771;28;20238;-68
2022/08/04 08:40:56;;;;;;;2.67;2.47;;;32.10;41.40;;;-142.21;34.77;112049.66;5112301;28;20273;-69
2022/08/04 08:43:55;;;;;;;2.73;2.17;;;32.20;41.10;;;-142.21;34.39;112049.66;5112204;28;20234;-69
2022/08/04 08:46:53;;;;;;;3.20;2.90;;;32.40;41.00;;;-142.21;34.12;112049.66;5113058;28;20188;-70
2022/08/04 08:50:05;;;;;;;2.27;2.13;;;32.40;40.50;;;-142.21;33.71;112049.66;5112183;28;20665;-69
2022/08/04 08:53:06;;;;;;;3.73;2.80;;;32.50;40.10;;;-142.21;33.19;112049.66;5113738;28;20188;-69
2022/08/04 08:55:54;;;;;;;3.30;2.60;;;32.70;39.90;;;-142.21;33.53;112049.66;5113991;28;20222;-71
2022/08/04 08:58:50;;;;;;;3.23;2.70;;;32.80;40.40;;;-142.21;33.18;112049.66;5112123;28;20296;-71
2022/08/04 09:01:52;;;;;;;3.40;2.60;;;33.00;39.90;;;-142.21;33.12;112049.66;5111735;28;20190;-70
2022/08/04 09:04:57;;;;;;;4.50;2.80;;;33.20;39.80;;;-142.21;32.74;112049.66;5111485;28;20311;-69
2022/08/04 09:08:07;;;;;;;2.70;2.50;;;33.30;39.00;;;-142.21;32.31;112049.66;5112233;28;20228;-70
2022/08/04 09:10:43;;;;;;;2.70;2.50;;;33.40;38.40;;;-142.21;32.27;112049.66;5112268;28;20229;-70
2022/08/04 09:13:23;;;;;;;2.50;2.30;;;33.40;38.70;;;-142.21;32.40;112049.66;5111136;28;20185;-70
2022/08/04 09:16:07;;;;;;;2.50;2.30;;;33.40;38.60;;;-142.21;32.65;112049.66;5112074;28;20242;-70
2022/08/04 09:18:42;;;;;;;3.40;3.10;;;33.60;39.00;;;-142.21;32.05;112049.66;5112131;28;20299;-69
2022/08/04 09:21:23;;;;;;;3.20;2.90;;;33.80;38.50;;;-142.21;32.15;112049.66;5111774;28;20194;-70
2022/08/04 09:24:15;;;;;;;2.60;2.40;;;33.80;38.40;;;-142.21;31.95;112049.66;5111642;28;20262;-69
2022/08/04 09:26:55;;;;;;;2.37;2.17;;;34.00;38.00;;;-142.21;31.40;112049.66;5111559;28;20233;-70
2022/08/04 09:29:40;;;;;;;3.43;2.43;;;34.10;37.40;;;-142.21;31.14;112049.66;5111707;28;20205;-70
2022/08/04 09:32:28;;;;;;;3.87;2.33;;;34.20;37.10;;;-142.21;31.74;112049.66;5111053;28;20282;-69
2022/08/04 09:35:17;;;;;;;3.70;2.40;;;34.30;37.60;;;-142.21;31.33;112049.66;5111977;28;20217;-70
2022/08/04 09:38:00;;;;;;;3.37;3.07;;;34.40;37.40;;;-142.21;31.87;112049.66;5112048;28;20216;-69
2022/08/04 09:40:36;;;;;;;2.87;2.67;;;34.50;37.40;;;-142.21;31.60;112049.66;5111998;28;20277;-68
2022/08/04 09:43:17;;;;;;;2.67;2.47;;;34.50;37.00;;;-142.21;31.59;112049.66;5111186;28;20229;-69
2022/08/04 09:46:00;;;;;;;2.57;2.23;;;34.50;37.70;;;-142.21;31.62;112049.66;5115574;28;20225;-69
2022/08/04 09:48:39;;;;;;;2.93;2.73;;;34.70;37.00;;;-142.21;31.73;112049.66;5115386;28;20272;-70
2022/08/04 09:51:24;;;;;;;3.37;2.40;;;34.90;37.10;;;-142.21;30.99;112049.66;5115144;28;20275;-70
2022/08/04 09:54:05;;;;;;;2.93;2.50;;;35.00;36.70;;;-142.21;30.92;112049.66;5115769;28;20716;-70
2022/08/04 09:56:42;;;;;;;2.90;2.60;;;35.10;36.30;;;-142.21;31.11;112049.66;5114987;28;20192;-70
2022/08/04 09:59:25;;;;;;;4.00;2.60;;;35.20;36.40;;;-142.21;31.24;112049.66;5114728;28;20227;-69
2022/08/04 10:01:59;;;;;;;3.37;2.20;;;35.30;36.40;;;-142.21;30.46;112049.66;5115485;28;20272;-69
2022/08/04 10:04:31;;;;;;;5.10;2.30;;;35.50;36.10;;;-142.21;30.47;112049.66;5115080;28;20648;-68
2022/08/04 10:07:39;;;;;;;4.37;2.50;;;35.60;35.70;;;-142.21;30.05;112049.66;5115328;28;20246;-70
2022/08/04 10:10:32;;;;;;;2.90;2.37;;;35.60;35.00;;;-142.21;30.51;112049.66;5114306;28;20195;-69
2022/08/04 10:13:25;;;;;;;2.57;2.37;;;35.70;35.30;;;-142.21;30.77;112049.66;5115226;28;20627;-68
2022/08/04 10:16:15;;;;;;;2.73;2.30;;;35.80;36.00;;;-142.21;30.39;112049.66;5115253;28;20193;-69
2022/08/04 10:19:02;;;;;;;4.10;2.80;;;35.80;35.40;;;-142.21;30.30;112049.66;5114834;28;20208;-70
2022/08/04 10:24:47;;;;;;;2.50;2.30;;;35.90;35.30;;;-142.21;30.47;112049.66;5111090;28;20251;-69
2022/08/04 10:27:24;;;;;;;3.63;2.57;;;36.00;35.00;;;-142.21;31.16;112049.66;5114344;28;20275;-69
2022/08/04 10:30:01;;;;;;;4.40;2.50;;;36.10;35.90;;;-142.21;31.54;112049.66;5114452;28;20654;-69
2022/08/04 10:32:35;;;;;;;2.90;2.60;;;36.30;36.70;;;-142.21;31.37;112049.66;5114740;28;20191;-69
2022/08/04 10:35:13;;;;;;;3.43;2.17;;;36.50;36.40;;;-142.21;29.64;112049.66;5062238;28;20204;-70
2022/08/04 10:37:53;;;;;;;3.07;2.77;;;36.70;35.10;;;-142.21;29.61;112049.66;5114637;28;20260;-70
2022/08/04 10:40:39;;;;;;;2.80;2.50;;;36.80;34.30;;;-142.21;28.30;112049.66;5113654;28;20197;-70
2022/08/04 10:43:25;;;;;;;2.50;2.07;;;36.70;33.10;;;-142.21;30.17;112049.66;5113511;28;20196;-69
2022/08/04 10:45:59;;;;;;;2.17;2.03;;;36.70;34.90;;;-142.21;28.04;112049.66;5114208;28;20198;-70
2022/08/04 10:48:42;;;;;;;2.30;2.10;;;36.70;33.00;;;-142.21;28.40;112049.66;5114119;28;20232;-70
2022/08/04 10:51:25;;;;;;;2.27;2.07;;;36.70;32.90;;;-142.21;28.12;112049.66;5113589;28;20648;-70
2022/08/04 10:54:02;;;;;;;2.57;2.07;;;36.80;33.20;;;-142.21;28.44;112049.66;5114129;28;20227;-70
2022/08/04 10:56:37;;;;;;;2.90;2.17;;;36.90;32.80;;;-142.21;28.98;112049.66;5114324;28;20224;-70
2022/08/04 10:59:21;;;;;;;2.10;2.00;;;37.10;33.30;;;-142.21;29.14;112049.66;5113555;28;20211;-69
2022/08/04 11:01:52;;;;;;;3.20;2.40;;;37.20;33.20;;;-142.21;28.75;112049.66;5114127;28;20184;-70